sensor_id;sensor_type;location;lat;lon;timestamp;pressure;altitude;pressure_sealevel;temperature;humidity
75513;BME280;64090;49.770;18.760;2023-06-22T00:02:19;97878.10;;;17.36;100.00
75513;BME280;64090;49.770;18.760;2023-06-22T00:05:24;97883.11;;;17.34;100.00
75513;BME280;64090;49.770;18.760;2023-06-22T00:08:27;97888.41;;;17.32;100.00
75513;BME280;64090;49.770;18.760;2023-06-22T00:11:30;97892.85;;;17.31;100.00
75513;BME280;64090;49.770;18.760;2023-06-22T00:14:35;97884.45;;;17.30;100.00
75513;BME280;64090;49.770;18.760;2023-06-22T00:17:38;97886.66;;;17.29;100.00
75513;BME280;64090;49.770;18.760;2023-06-22T00:20:42;97887.42;;;17.28;100.00
75513;BME280;64090;49.770;18.760;2023-06-22T00:23:45;97880.63;;;17.25;100.00
75513;BME280;64090;49.770;18.760;2023-06-22T00:26:48;97870.48;;;17.26;100.00
75513;BME280;64090;49.770;18.760;2023-06-22T00:29:51;97863.20;;;17.26;100.00
75513;BME280;64090;49.770;18.760;2023-06-22T00:32:54;97868.69;;;17.26;99.98
75513;BME280;64090;49.770;18.760;2023-06-22T00:35:57;97866.95;;;17.27;100.00
75513;BME280;64090;49.770;18.760;2023-06-22T00:39:00;97864.86;;;17.28;100.00
75513;BME280;64090;49.770;18.760;2023-06-22T00:42:04;97860.08;;;17.27;100.00
75513;BME280;64090;49.770;18.760;2023-06-22T00:45:07;97865.29;;;17.27;100.00
75513;BME280;64090;49.770;18.760;2023-06-22T00:48:11;97868.43;;;17.29;100.00
75513;BME280;64090;49.770;18.760;2023-06-22T00:51:15;97862.91;;;17.30;100.00
75513;BME280;64090;49.770;18.760;2023-06-22T00:54:19;97860.17;;;17.30;100.00
75513;BME280;64090;49.770;18.760;2023-06-22T00:57:27;97861.73;;;17.30;100.00
75513;BME280;64090;49.770;18.760;2023-06-22T01:00:31;97864.37;;;17.31;100.00
75513;BME280;64090;49.770;18.760;2023-06-22T01:03:35;97861.45;;;17.30;100.00
75513;BME280;64090;49.770;18.760;2023-06-22T01:06:47;97864.69;;;17.30;100.00
75513;BME280;64090;49.770;18.760;2023-06-22T01:16:35;97866.30;;;17.30;100.00
75513;BME280;64090;49.770;18.760;2023-06-22T01:19:49;97852.79;;;17.29;100.00
75513;BME280;64090;49.770;18.760;2023-06-22T01:26:25;97839.61;;;17.24;100.00
75513;BME280;64090;49.770;18.760;2023-06-22T01:29:32;97833.70;;;17.21;100.00
75513;BME280;64090;49.770;18.760;2023-06-22T01:32:37;97830.86;;;17.19;100.00
75513;BME280;64090;49.770;18.760;2023-06-22T01:35:41;97828.68;;;17.17;100.00
75513;BME280;64090;49.770;18.760;2023-06-22T01:38:45;97833.99;;;17.13;100.00
75513;BME280;64090;49.770;18.760;2023-06-22T01:41:49;97833.85;;;17.10;100.00
75513;BME280;64090;49.770;18.760;2023-06-22T01:44:53;97832.55;;;17.06;100.00
75513;BME280;64090;49.770;18.760;2023-06-22T01:47:57;97837.77;;;17.03;100.00
75513;BME280;64090;49.770;18.760;2023-06-22T01:51:00;97837.09;;;17.01;100.00
75513;BME280;64090;49.770;18.760;2023-06-22T01:54:06;97841.56;;;16.99;100.00
75513;BME280;64090;49.770;18.760;2023-06-22T01:57:10;97843.30;;;16.97;100.00
75513;BME280;64090;49.770;18.760;2023-06-22T02:00:18;97849.77;;;16.94;100.00
75513;BME280;64090;49.770;18.760;2023-06-22T02:03:30;97852.06;;;16.90;100.00
75513;BME280;64090;49.770;18.760;2023-06-22T02:06:37;97855.55;;;16.87;100.00
75513;BME280;64090;49.770;18.760;2023-06-22T02:09:44;97864.21;;;16.84;100.00
75513;BME280;64090;49.770;18.760;2023-06-22T02:12:48;97873.25;;;16.83;100.00
75513;BME280;64090;49.770;18.760;2023-06-22T02:15:55;97878.30;;;16.83;100.00
75513;BME280;64090;49.770;18.760;2023-06-22T02:19:01;97888.31;;;16.84;100.00
75513;BME280;64090;49.770;18.760;2023-06-22T02:22:05;97891.92;;;16.86;100.00
75513;BME280;64090;49.770;18.760;2023-06-22T02:25:08;97895.13;;;16.87;100.00
75513;BME280;64090;49.770;18.760;2023-06-22T02:28:11;97893.46;;;16.86;100.00
75513;BME280;64090;49.770;18.760;2023-06-22T02:31:14;97892.84;;;16.86;100.00
75513;BME280;64090;49.770;18.760;2023-06-22T02:34:18;97892.93;;;16.84;100.00
75513;BME280;64090;49.770;18.760;2023-06-22T02:37:22;97893.34;;;16.82;100.00
75513;BME280;64090;49.770;18.760;2023-06-22T02:40:30;97894.59;;;16.80;100.00
75513;BME280;64090;49.770;18.760;2023-06-22T02:43:34;97899.50;;;16.77;100.00
75513;BME280;64090;49.770;18.760;2023-06-22T02:46:36;97904.13;;;16.72;100.00
75513;BME280;64090;49.770;18.760;2023-06-22T02:49:39;97909.81;;;16.68;100.00
75513;BME280;64090;49.770;18.760;2023-06-22T02:52:42;97912.57;;;16.67;100.00
75513;BME280;64090;49.770;18.760;2023-06-22T02:55:45;97914.54;;;16.66;100.00
75513;BME280;64090;49.770;18.760;2023-06-22T02:58:48;97920.63;;;16.67;100.00
75513;BME280;64090;49.770;18.760;2023-06-22T03:01:51;97917.62;;;16.70;100.00
75513;BME280;64090;49.770;18.760;2023-06-22T03:04:54;97923.15;;;16.73;100.00
75513;BME280;64090;49.770;18.760;2023-06-22T03:07:57;97926.89;;;16.78;100.00
75513;BME280;64090;49.770;18.760;2023-06-22T03:11:00;97930.51;;;16.83;100.00
75513;BME280;64090;49.770;18.760;2023-06-22T03:14:03;97929.48;;;16.88;100.00
75513;BME280;64090;49.770;18.760;2023-06-22T03:17:06;97923.96;;;16.93;100.00
75513;BME280;64090;49.770;18.760;2023-06-22T03:20:10;97924.06;;;16.96;100.00
75513;BME280;64090;49.770;18.760;2023-06-22T03:23:14;97924.37;;;17.01;100.00
75513;BME280;64090;49.770;18.760;2023-06-22T03:26:17;97926.02;;;17.08;100.00
75513;BME280;64090;49.770;18.760;2023-06-22T03:29:21;97930.99;;;17.23;100.00
75513;BME280;64090;49.770;18.760;2023-06-22T03:32:24;97938.63;;;17.37;100.00
75513;BME280;64090;49.770;18.760;2023-06-22T03:35:28;97950.17;;;17.56;100.00
75513;BME280;64090;49.770;18.760;2023-06-22T03:38:31;97947.80;;;17.66;99.64
75513;BME280;64090;49.770;18.760;2023-06-22T03:41:34;97944.02;;;17.75;99.93
75513;BME280;64090;49.770;18.760;2023-06-22T03:44:36;97950.45;;;17.86;99.80
75513;BME280;64090;49.770;18.760;2023-06-22T03:47:40;97953.65;;;18.24;99.84
75513;BME280;64090;49.770;18.760;2023-06-22T03:50:44;97947.81;;;18.34;99.33
75513;BME280;64090;49.770;18.760;2023-06-22T03:53:47;97944.73;;;18.30;99.00
75513;BME280;64090;49.770;18.760;2023-06-22T03:56:50;97940.21;;;18.29;98.61
75513;BME280;64090;49.770;18.760;2023-06-22T03:59:56;97939.31;;;18.58;98.10
75513;BME280;64090;49.770;18.760;2023-06-22T04:02:59;97947.36;;;19.31;96.49
75513;BME280;64090;49.770;18.760;2023-06-22T04:06:03;97944.38;;;20.10;95.42
75513;BME280;64090;49.770;18.760;2023-06-22T04:09:06;97936.31;;;20.77;93.26
75513;BME280;64090;49.770;18.760;2023-06-22T04:12:09;97934.64;;;21.38;91.61
75513;BME280;64090;49.770;18.760;2023-06-22T04:15:12;97937.78;;;21.95;90.56
75513;BME280;64090;49.770;18.760;2023-06-22T04:18:15;97946.20;;;22.60;89.37
75513;BME280;64090;49.770;18.760;2023-06-22T04:21:18;97948.56;;;23.19;87.64
75513;BME280;64090;49.770;18.760;2023-06-22T04:24:22;97949.64;;;23.63;85.91
75513;BME280;64090;49.770;18.760;2023-06-22T04:27:25;97955.73;;;23.95;83.98
75513;BME280;64090;49.770;18.760;2023-06-22T04:30:28;97953.25;;;24.18;82.63
75513;BME280;64090;49.770;18.760;2023-06-22T04:33:31;97956.77;;;24.51;82.24
75513;BME280;64090;49.770;18.760;2023-06-22T04:36:36;97968.20;;;24.96;84.01
75513;BME280;64090;49.770;18.760;2023-06-22T04:39:40;97964.45;;;25.39;81.97
75513;BME280;64090;49.770;18.760;2023-06-22T04:42:43;97966.75;;;25.53;79.00
75513;BME280;64090;49.770;18.760;2023-06-22T04:45:55;97963.88;;;25.77;76.47
75513;BME280;64090;49.770;18.760;2023-06-22T04:48:57;97969.99;;;25.53;78.30
75513;BME280;64090;49.770;18.760;2023-06-22T04:52:02;97970.11;;;25.69;78.68
75513;BME280;64090;49.770;18.760;2023-06-22T04:55:05;97969.56;;;26.05;78.19
75513;BME280;64090;49.770;18.760;2023-06-22T04:58:09;97968.05;;;26.25;77.81
75513;BME280;64090;49.770;18.760;2023-06-22T05:01:12;97966.73;;;26.12;78.24
75513;BME280;64090;49.770;18.760;2023-06-22T05:04:14;97972.14;;;25.82;79.81
75513;BME280;64090;49.770;18.760;2023-06-22T05:07:18;97981.42;;;25.77;80.53
75513;BME280;64090;49.770;18.760;2023-06-22T05:10:21;97987.75;;;25.70;78.98
75513;BME280;64090;49.770;18.760;2023-06-22T05:13:23;97987.25;;;25.70;79.02
75513;BME280;64090;49.770;18.760;2023-06-22T05:16:29;97990.21;;;25.66;77.84
75513;BME280;64090;49.770;18.760;2023-06-22T05:19:32;97995.67;;;25.51;78.46
75513;BME280;64090;49.770;18.760;2023-06-22T05:22:37;98000.24;;;25.48;75.96
75513;BME280;64090;49.770;18.760;2023-06-22T05:25:40;97997.02;;;25.45;76.78
75513;BME280;64090;49.770;18.760;2023-06-22T05:28:43;97993.61;;;25.47;77.60
75513;BME280;64090;49.770;18.760;2023-06-22T05:31:49;97995.80;;;25.54;76.95
75513;BME280;64090;49.770;18.760;2023-06-22T05:34:52;98003.64;;;25.50;76.12
75513;BME280;64090;49.770;18.760;2023-06-22T05:37:55;98002.88;;;25.47;74.95
75513;BME280;64090;49.770;18.760;2023-06-22T05:40:58;98001.90;;;25.58;77.54
75513;BME280;64090;49.770;18.760;2023-06-22T05:44:01;97999.98;;;25.78;77.49
75513;BME280;64090;49.770;18.760;2023-06-22T05:47:04;98002.39;;;25.92;72.41
75513;BME280;64090;49.770;18.760;2023-06-22T05:50:07;98002.95;;;25.66;68.28
75513;BME280;64090;49.770;18.760;2023-06-22T05:53:15;98000.77;;;25.31;70.57
75513;BME280;64090;49.770;18.760;2023-06-22T05:56:18;97995.64;;;25.20;70.48
75513;BME280;64090;49.770;18.760;2023-06-22T05:59:21;97997.95;;;25.13;71.50
75513;BME280;64090;49.770;18.760;2023-06-22T06:02:24;97999.59;;;25.34;72.45
75513;BME280;64090;49.770;18.760;2023-06-22T06:05:28;98004.18;;;25.64;74.78
75513;BME280;64090;49.770;18.760;2023-06-22T06:08:31;98004.57;;;25.85;72.08
75513;BME280;64090;49.770;18.760;2023-06-22T06:11:34;98000.18;;;26.03;74.91
75513;BME280;64090;49.770;18.760;2023-06-22T06:14:37;97999.45;;;26.35;75.29
75513;BME280;64090;49.770;18.760;2023-06-22T06:17:58;98001.60;;;26.48;71.91
75513;BME280;64090;49.770;18.760;2023-06-22T06:21:01;98002.39;;;26.53;69.44
75513;BME280;64090;49.770;18.760;2023-06-22T06:24:04;98005.77;;;26.52;67.18
75513;BME280;64090;49.770;18.760;2023-06-22T06:27:07;98004.41;;;26.52;67.92
75513;BME280;64090;49.770;18.760;2023-06-22T06:30:12;98009.39;;;26.61;68.10
75513;BME280;64090;49.770;18.760;2023-06-22T06:33:15;98010.16;;;26.63;64.54
75513;BME280;64090;49.770;18.760;2023-06-22T06:36:18;98012.73;;;26.36;66.76
75513;BME280;64090;49.770;18.760;2023-06-22T06:39:21;98014.17;;;26.49;66.52
75513;BME280;64090;49.770;18.760;2023-06-22T06:42:24;98010.42;;;26.46;66.80
75513;BME280;64090;49.770;18.760;2023-06-22T06:45:27;98009.30;;;26.53;67.43
75513;BME280;64090;49.770;18.760;2023-06-22T06:48:31;98010.65;;;26.69;67.34
75513;BME280;64090;49.770;18.760;2023-06-22T06:51:34;98015.41;;;26.91;64.13
75513;BME280;64090;49.770;18.760;2023-06-22T06:54:37;98020.69;;;26.76;63.51
75513;BME280;64090;49.770;18.760;2023-06-22T06:57:41;98019.30;;;26.67;64.99
75513;BME280;64090;49.770;18.760;2023-06-22T07:00:44;98013.71;;;26.97;66.39
75513;BME280;64090;49.770;18.760;2023-06-22T07:03:47;98017.10;;;27.45;62.59
75513;BME280;64090;49.770;18.760;2023-06-22T07:06:50;98019.30;;;27.44;62.40
75513;BME280;64090;49.770;18.760;2023-06-22T07:09:53;98022.02;;;27.23;63.75
75513;BME280;64090;49.770;18.760;2023-06-22T07:12:56;98020.02;;;27.29;61.63
75513;BME280;64090;49.770;18.760;2023-06-22T07:16:00;98014.61;;;26.91;62.36
75513;BME280;64090;49.770;18.760;2023-06-22T07:19:03;98014.45;;;26.85;64.26
75513;BME280;64090;49.770;18.760;2023-06-22T07:22:06;98018.86;;;26.92;63.85
75513;BME280;64090;49.770;18.760;2023-06-22T07:25:09;98020.80;;;27.18;62.45
75513;BME280;64090;49.770;18.760;2023-06-22T07:28:12;98018.58;;;27.17;61.45
75513;BME280;64090;49.770;18.760;2023-06-22T07:31:15;98023.12;;;27.18;63.04
75513;BME280;64090;49.770;18.760;2023-06-22T07:34:18;98028.64;;;27.65;62.40
75513;BME280;64090;49.770;18.760;2023-06-22T07:37:21;98031.48;;;28.25;62.74
75513;BME280;64090;49.770;18.760;2023-06-22T07:40:24;98028.34;;;28.81;61.89
75513;BME280;64090;49.770;18.760;2023-06-22T07:43:27;98025.80;;;29.13;59.67
75513;BME280;64090;49.770;18.760;2023-06-22T07:46:33;98031.48;;;28.82;57.89
75513;BME280;64090;49.770;18.760;2023-06-22T07:49:36;98033.57;;;28.27;60.31
75513;BME280;64090;49.770;18.760;2023-06-22T07:52:39;98028.64;;;28.15;59.86
75513;BME280;64090;49.770;18.760;2023-06-22T07:55:42;98027.16;;;27.94;60.48
75513;BME280;64090;49.770;18.760;2023-06-22T07:58:45;98028.05;;;27.72;61.51
75513;BME280;64090;49.770;18.760;2023-06-22T08:01:49;98027.89;;;27.79;63.42
75513;BME280;64090;49.770;18.760;2023-06-22T08:04:52;98035.27;;;27.93;60.84
75513;BME280;64090;49.770;18.760;2023-06-22T08:08:02;98034.86;;;28.05;62.19
75513;BME280;64090;49.770;18.760;2023-06-22T08:11:05;98033.35;;;28.29;61.85
75513;BME280;64090;49.770;18.760;2023-06-22T08:14:08;98034.69;;;28.23;61.20
75513;BME280;64090;49.770;18.760;2023-06-22T08:17:12;98041.64;;;28.20;60.98
75513;BME280;64090;49.770;18.760;2023-06-22T08:20:15;98047.59;;;28.21;61.69
75513;BME280;64090;49.770;18.760;2023-06-22T08:23:18;98046.32;;;28.34;61.54
75513;BME280;64090;49.770;18.760;2023-06-22T08:26:21;98047.83;;;28.62;60.63
75513;BME280;64090;49.770;18.760;2023-06-22T08:29:24;98057.36;;;28.81;59.59
75513;BME280;64090;49.770;18.760;2023-06-22T08:32:28;98057.39;;;28.82;58.60
75513;BME280;64090;49.770;18.760;2023-06-22T08:35:31;98054.55;;;28.80;59.28
75513;BME280;64090;49.770;18.760;2023-06-22T08:38:35;98060.38;;;28.40;59.20
75513;BME280;64090;49.770;18.760;2023-06-22T08:41:38;98059.44;;;28.36;60.32
75513;BME280;64090;49.770;18.760;2023-06-22T08:44:41;98062.06;;;28.51;59.42
75513;BME280;64090;49.770;18.760;2023-06-22T08:47:43;98058.67;;;28.54;59.90
75513;BME280;64090;49.770;18.760;2023-06-22T08:50:46;98055.59;;;28.56;60.37
75513;BME280;64090;49.770;18.760;2023-06-22T08:53:49;98061.31;;;28.87;60.05
75513;BME280;64090;49.770;18.760;2023-06-22T08:56:52;98057.80;;;29.02;59.15
75513;BME280;64090;49.770;18.760;2023-06-22T08:59:55;98054.70;;;28.99;58.44
75513;BME280;64090;49.770;18.760;2023-06-22T09:03:02;98054.59;;;28.92;57.03
75513;BME280;64090;49.770;18.760;2023-06-22T09:06:05;98052.36;;;28.88;58.39
75513;BME280;64090;49.770;18.760;2023-06-22T09:09:08;98045.96;;;29.09;58.39
75513;BME280;64090;49.770;18.760;2023-06-22T09:12:11;98039.23;;;29.29;57.03
75513;BME280;64090;49.770;18.760;2023-06-22T09:15:14;98037.74;;;29.29;57.23
75513;BME280;64090;49.770;18.760;2023-06-22T09:18:30;98037.56;;;29.39;58.29
75513;BME280;64090;49.770;18.760;2023-06-22T09:21:33;98035.37;;;29.37;55.74
75513;BME280;64090;49.770;18.760;2023-06-22T09:24:36;98038.81;;;29.36;54.93
75513;BME280;64090;49.770;18.760;2023-06-22T09:27:39;98040.17;;;29.40;54.98
75513;BME280;64090;49.770;18.760;2023-06-22T09:30:45;98036.23;;;29.55;56.15
75513;BME280;64090;49.770;18.760;2023-06-22T09:33:48;98035.23;;;29.60;54.60
75513;BME280;64090;49.770;18.760;2023-06-22T09:36:51;98031.02;;;29.33;54.90
75513;BME280;64090;49.770;18.760;2023-06-22T09:39:54;98026.64;;;29.29;55.98
75513;BME280;64090;49.770;18.760;2023-06-22T09:42:57;98029.64;;;29.42;54.46
75513;BME280;64090;49.770;18.760;2023-06-22T09:45:59;98024.69;;;29.60;54.14
75513;BME280;64090;49.770;18.760;2023-06-22T09:49:02;98020.30;;;29.89;54.87
75513;BME280;64090;49.770;18.760;2023-06-22T09:52:06;98017.66;;;30.09;53.78
75513;BME280;64090;49.770;18.760;2023-06-22T09:55:09;98011.20;;;30.10;52.74
75513;BME280;64090;49.770;18.760;2023-06-22T09:58:12;98004.70;;;29.92;53.10
75513;BME280;64090;49.770;18.760;2023-06-22T10:01:15;98000.95;;;29.77;52.84
75513;BME280;64090;49.770;18.760;2023-06-22T10:04:18;98003.77;;;29.69;52.90
75513;BME280;64090;49.770;18.760;2023-06-22T10:07:21;98007.15;;;29.78;53.07
75513;BME280;64090;49.770;18.760;2023-06-22T10:10:24;98006.82;;;29.79;52.02
75513;BME280;64090;49.770;18.760;2023-06-22T10:13:27;98004.80;;;29.73;52.33
75513;BME280;64090;49.770;18.760;2023-06-22T10:16:31;98002.27;;;29.79;51.94
75513;BME280;64090;49.770;18.760;2023-06-22T10:19:35;98002.77;;;29.92;51.84
75513;BME280;64090;49.770;18.760;2023-06-22T10:22:41;98002.22;;;30.05;52.10
75513;BME280;64090;49.770;18.760;2023-06-22T10:25:44;97999.62;;;29.99;51.31
75513;BME280;64090;49.770;18.760;2023-06-22T10:28:47;97995.05;;;29.90;50.83
75513;BME280;64090;49.770;18.760;2023-06-22T10:31:52;97996.65;;;30.01;51.77
75513;BME280;64090;49.770;18.760;2023-06-22T10:34:55;97994.45;;;30.16;51.47
75513;BME280;64090;49.770;18.760;2023-06-22T10:38:01;97996.36;;;30.39;51.67
75513;BME280;64090;49.770;18.760;2023-06-22T10:41:04;97994.70;;;30.64;51.46
75513;BME280;64090;49.770;18.760;2023-06-22T10:44:07;97992.11;;;30.87;50.04
75513;BME280;64090;49.770;18.760;2023-06-22T10:47:10;97992.59;;;30.78;48.95
75513;BME280;64090;49.770;18.760;2023-06-22T10:50:17;97997.23;;;31.00;49.80
75513;BME280;64090;49.770;18.760;2023-06-22T10:53:20;97989.85;;;31.16;49.24
75513;BME280;64090;49.770;18.760;2023-06-22T10:56:24;97988.75;;;30.84;49.46
75513;BME280;64090;49.770;18.760;2023-06-22T10:59:27;97988.37;;;30.41;50.06
75513;BME280;64090;49.770;18.760;2023-06-22T11:02:31;97984.16;;;30.01;50.39
75513;BME280;64090;49.770;18.760;2023-06-22T11:05:35;97975.03;;;29.90;51.86
75513;BME280;64090;49.770;18.760;2023-06-22T11:08:38;97971.41;;;30.14;51.90
75513;BME280;64090;49.770;18.760;2023-06-22T11:11:45;97968.56;;;30.32;51.39
75513;BME280;64090;49.770;18.760;2023-06-22T11:14:48;97963.16;;;30.20;51.15
75513;BME280;64090;49.770;18.760;2023-06-22T11:17:54;97959.25;;;29.74;51.36
75513;BME280;64090;49.770;18.760;2023-06-22T11:20:57;97962.97;;;29.53;51.94
75513;BME280;64090;49.770;18.760;2023-06-22T11:24:01;97960.33;;;29.40;51.99
75513;BME280;64090;49.770;18.760;2023-06-22T11:27:04;97958.30;;;29.61;52.23
75513;BME280;64090;49.770;18.760;2023-06-22T11:30:08;97962.58;;;29.87;51.07
75513;BME280;64090;49.770;18.760;2023-06-22T11:33:11;97959.17;;;30.19;51.07
75513;BME280;64090;49.770;18.760;2023-06-22T11:36:15;97960.76;;;30.45;50.88
75513;BME280;64090;49.770;18.760;2023-06-22T11:39:18;97959.25;;;30.44;49.50
75513;BME280;64090;49.770;18.760;2023-06-22T11:42:35;97961.02;;;30.02;49.57
75513;BME280;64090;49.770;18.760;2023-06-22T11:45:38;97951.90;;;29.77;50.54
75513;BME280;64090;49.770;18.760;2023-06-22T11:48:41;97950.32;;;29.88;49.88
75513;BME280;64090;49.770;18.760;2023-06-22T11:51:44;97944.06;;;29.99;49.31
75513;BME280;64090;49.770;18.760;2023-06-22T11:54:47;97934.58;;;29.97;49.33
75513;BME280;64090;49.770;18.760;2023-06-22T11:57:57;97928.45;;;30.14;49.37
75513;BME280;64090;49.770;18.760;2023-06-22T12:01:06;97928.02;;;30.08;49.80
75513;BME280;64090;49.770;18.760;2023-06-22T12:04:08;97921.27;;;30.05;49.34
75513;BME280;64090;49.770;18.760;2023-06-22T12:07:13;97917.61;;;29.98;49.94
75513;BME280;64090;49.770;18.760;2023-06-22T12:10:17;97914.13;;;29.95;50.28
75513;BME280;64090;49.770;18.760;2023-06-22T12:13:21;97913.36;;;30.01;49.88
75513;BME280;64090;49.770;18.760;2023-06-22T12:16:24;97917.39;;;29.76;50.09
75513;BME280;64090;49.770;18.760;2023-06-22T12:19:27;97917.31;;;29.65;50.07
75513;BME280;64090;49.770;18.760;2023-06-22T12:22:32;97909.48;;;29.65;49.80
75513;BME280;64090;49.770;18.760;2023-06-22T12:25:35;97901.91;;;29.86;49.82
75513;BME280;64090;49.770;18.760;2023-06-22T12:28:38;97902.28;;;30.14;49.86
75513;BME280;64090;49.770;18.760;2023-06-22T12:31:41;97892.48;;;30.27;49.07
75513;BME280;64090;49.770;18.760;2023-06-22T12:34:44;97892.55;;;30.31;49.18
75513;BME280;64090;49.770;18.760;2023-06-22T12:37:48;97890.73;;;30.32;49.18
75513;BME280;64090;49.770;18.760;2023-06-22T12:40:51;97884.40;;;30.35;48.91
75513;BME280;64090;49.770;18.760;2023-06-22T12:43:54;97887.49;;;30.42;48.67
75513;BME280;64090;49.770;18.760;2023-06-22T12:46:57;97884.15;;;30.44;48.32
75513;BME280;64090;49.770;18.760;2023-06-22T12:50:00;97883.11;;;30.38;47.42
75513;BME280;64090;49.770;18.760;2023-06-22T12:53:03;97883.23;;;30.29;48.21
75513;BME280;64090;49.770;18.760;2023-06-22T12:56:08;97880.19;;;30.31;47.59
75513;BME280;64090;49.770;18.760;2023-06-22T12:59:12;97875.41;;;30.22;47.85
75513;BME280;64090;49.770;18.760;2023-06-22T13:02:15;97874.11;;;30.27;47.54
75513;BME280;64090;49.770;18.760;2023-06-22T13:05:18;97873.34;;;30.37;47.29
75513;BME280;64090;49.770;18.760;2023-06-22T13:08:21;97870.33;;;30.44;46.84
75513;BME280;64090;49.770;18.760;2023-06-22T13:11:37;97863.20;;;30.46;47.07
75513;BME280;64090;49.770;18.760;2023-06-22T13:14:40;97856.79;;;30.45;46.65
75513;BME280;64090;49.770;18.760;2023-06-22T13:17:43;97852.77;;;30.44;46.24
75513;BME280;64090;49.770;18.760;2023-06-22T13:20:46;97852.33;;;30.53;47.08
75513;BME280;64090;49.770;18.760;2023-06-22T13:23:49;97848.59;;;30.64;46.61
75513;BME280;64090;49.770;18.760;2023-06-22T13:26:52;97847.58;;;30.75;46.88
75513;BME280;64090;49.770;18.760;2023-06-22T13:29:55;97848.33;;;30.90;45.86
75513;BME280;64090;49.770;18.760;2023-06-22T13:32:59;97843.56;;;30.89;44.91
75513;BME280;64090;49.770;18.760;2023-06-22T13:36:02;97843.80;;;30.86;45.44
75513;BME280;64090;49.770;18.760;2023-06-22T13:39:06;97837.94;;;30.84;44.89
75513;BME280;64090;49.770;18.760;2023-06-22T13:42:09;97834.20;;;30.93;45.24
75513;BME280;64090;49.770;18.760;2023-06-22T13:45:12;97833.05;;;30.99;45.67
75513;BME280;64090;49.770;18.760;2023-06-22T13:48:15;97831.94;;;31.03;44.86
75513;BME280;64090;49.770;18.760;2023-06-22T13:51:18;97835.21;;;30.92;45.05
75513;BME280;64090;49.770;18.760;2023-06-22T13:54:21;97831.97;;;30.81;44.60
75513;BME280;64090;49.770;18.760;2023-06-22T13:57:27;97826.95;;;30.89;45.08
75513;BME280;64090;49.770;18.760;2023-06-22T14:00:30;97823.79;;;30.95;44.78
75513;BME280;64090;49.770;18.760;2023-06-22T14:03:34;97826.08;;;31.13;45.49
75513;BME280;64090;49.770;18.760;2023-06-22T14:06:38;97823.42;;;31.20;43.70
75513;BME280;64090;49.770;18.760;2023-06-22T14:09:41;97822.92;;;31.21;43.39
75513;BME280;64090;49.770;18.760;2023-06-22T14:12:45;97821.85;;;31.04;43.52
75513;BME280;64090;49.770;18.760;2023-06-22T14:15:49;97822.46;;;31.08;43.82
75513;BME280;64090;49.770;18.760;2023-06-22T14:18:54;97822.80;;;31.13;43.43
75513;BME280;64090;49.770;18.760;2023-06-22T14:22:00;97818.69;;;31.24;43.90
75513;BME280;64090;49.770;18.760;2023-06-22T14:25:04;97818.46;;;31.30;43.27
75513;BME280;64090;49.770;18.760;2023-06-22T14:28:07;97812.83;;;31.31;42.95
75513;BME280;64090;49.770;18.760;2023-06-22T14:31:11;97810.90;;;31.41;42.69
75513;BME280;64090;49.770;18.760;2023-06-22T14:34:15;97815.02;;;31.41;42.35
75513;BME280;64090;49.770;18.760;2023-06-22T14:37:18;97807.41;;;31.44;41.79
75513;BME280;64090;49.770;18.760;2023-06-22T14:40:21;97809.73;;;31.48;42.77
75513;BME280;64090;49.770;18.760;2023-06-22T14:43:28;97807.41;;;31.44;41.03
75513;BME280;64090;49.770;18.760;2023-06-22T14:46:31;97804.98;;;31.24;41.35
75513;BME280;64090;49.770;18.760;2023-06-22T14:49:34;97805.20;;;31.35;42.05
75513;BME280;64090;49.770;18.760;2023-06-22T14:52:38;97799.73;;;31.42;41.76
75513;BME280;64090;49.770;18.760;2023-06-22T14:55:41;97796.84;;;31.39;42.12
75513;BME280;64090;49.770;18.760;2023-06-22T14:58:44;97794.11;;;31.48;42.90
75513;BME280;64090;49.770;18.760;2023-06-22T15:01:49;97795.63;;;31.59;42.55
75513;BME280;64090;49.770;18.760;2023-06-22T15:04:52;97795.27;;;31.54;41.83
75513;BME280;64090;49.770;18.760;2023-06-22T15:07:57;97789.70;;;31.50;41.03
75513;BME280;64090;49.770;18.760;2023-06-22T15:11:00;97793.73;;;31.48;40.70
75513;BME280;64090;49.770;18.760;2023-06-22T15:14:09;97791.62;;;31.40;41.06
75513;BME280;64090;49.770;18.760;2023-06-22T15:17:13;97790.42;;;31.33;41.34
75513;BME280;64090;49.770;18.760;2023-06-22T15:20:18;97790.65;;;31.28;41.18
75513;BME280;64090;49.770;18.760;2023-06-22T15:23:21;97783.09;;;31.30;41.79
75513;BME280;64090;49.770;18.760;2023-06-22T15:26:24;97782.88;;;31.26;41.06
75513;BME280;64090;49.770;18.760;2023-06-22T15:29:27;97779.58;;;31.19;41.17
75513;BME280;64090;49.770;18.760;2023-06-22T15:32:33;97778.48;;;31.09;41.47
75513;BME280;64090;49.770;18.760;2023-06-22T15:35:36;97776.56;;;31.06;41.28
75513;BME280;64090;49.770;18.760;2023-06-22T15:38:39;97777.86;;;31.23;41.82
75513;BME280;64090;49.770;18.760;2023-06-22T15:41:43;97775.91;;;31.42;41.61
75513;BME280;64090;49.770;18.760;2023-06-22T15:44:46;97778.59;;;31.51;41.28
75513;BME280;64090;49.770;18.760;2023-06-22T15:47:49;97778.89;;;31.63;41.39
75513;BME280;64090;49.770;18.760;2023-06-22T15:50:52;97774.44;;;31.73;41.19
75513;BME280;64090;49.770;18.760;2023-06-22T15:53:55;97776.92;;;31.80;41.25
75513;BME280;64090;49.770;18.760;2023-06-22T15:57:00;97773.94;;;31.87;40.85
75513;BME280;64090;49.770;18.760;2023-06-22T16:00:04;97768.90;;;31.82;39.88
75513;BME280;64090;49.770;18.760;2023-06-22T16:03:08;97766.82;;;31.73;39.66
75513;BME280;64090;49.770;18.760;2023-06-22T16:06:11;97763.59;;;31.68;39.85
75513;BME280;64090;49.770;18.760;2023-06-22T16:09:14;97761.16;;;31.66;40.50